Time;durP1;ratioP1;P1;durP2;ratioP2;P2;SDS_P1;SDS_P2;PMS_P1;PMS_P2;Temp;Humidity;BMP_temperature;BMP_pressure;BME280_temperature;BME280_humidity;BME280_pressure;Samples;Min_cycle;Max_cycle;Signal;HPM_P1;HPM_P2
2022/08/20 00:00:17;;;;;;;;;3.00;3.00;;;;;20.86;62.36;101416.69;5080116;28;45412;-75
2022/08/20 00:02:49;;;;;;;;;3.67;3.00;;;;;20.75;62.46;101406.66;5079676;28;45431;-75
2022/08/20 00:05:19;;;;;;;;;4.00;3.67;;;;;20.76;62.65;101416.38;5079632;28;45370;-75
2022/08/20 00:07:44;;;;;;;;;2.67;2.00;;;;;20.69;62.69;101411.09;5079556;28;45346;-75
2022/08/20 00:10:09;;;;;;;;;2.33;2.33;;;;;20.66;62.72;101406.13;5079781;28;45445;-75
2022/08/20 00:12:36;;;;;;;;;4.00;3.00;;;;;20.62;63.16;101402.25;5079199;28;45901;-75
2022/08/20 00:15:03;;;;;;;;;0.00;0.00;;;;;20.64;63.22;101405.53;5079733;28;46532;-75
2022/08/20 00:17:35;;;;;;;;;3.33;3.33;;;;;20.58;63.24;101409.94;5082465;27;45486;-75
2022/08/20 00:20:01;;;;;;;;;3.67;3.33;;;;;20.58;63.50;101411.81;5079610;28;45223;-75
2022/08/20 00:22:26;;;;;;;;;1.00;1.00;;;;;20.51;63.96;101393.00;5079589;28;45259;-75
2022/08/20 00:24:52;;;;;;;;;3.00;2.33;;;;;20.42;63.89;101400.59;5079392;28;46354;-75
2022/08/20 00:27:17;;;;;;;;;3.00;3.00;;;;;20.31;64.36;101399.44;5079403;28;45273;-75
2022/08/20 00:29:42;;;;;;;;;3.00;2.00;;;;;20.23;64.36;101408.66;5079400;28;45430;-75
2022/08/20 00:32:08;;;;;;;;;2.67;2.00;;;;;20.12;64.33;101402.13;5079648;28;45477;-75
2022/08/20 00:34:33;;;;;;;;;2.67;2.00;;;;;20.05;64.53;101409.44;5079278;28;45268;-75
2022/08/20 00:36:59;;;;;;;;;4.00;4.00;;;;;19.92;65.04;101407.66;5079286;28;45493;-75
2022/08/20 00:39:24;;;;;;;;;2.33;1.00;;;;;19.80;65.28;101412.97;5079513;28;45520;-75
2022/08/20 00:41:50;;;;;;;;;5.00;2.00;;;;;19.74;65.38;101403.88;5078982;28;45528;-75
2022/08/20 00:44:20;;;;;;;;;3.00;3.00;;;;;19.68;65.77;101415.53;5079190;28;45415;-75
2022/08/20 00:46:46;;;;;;;;;4.00;3.33;;;;;19.56;66.00;101404.63;5079205;28;45504;-75
2022/08/20 00:49:21;;;;;;;;;4.00;4.00;;;;;19.53;66.17;101423.94;5079331;28;45413;-75
2022/08/20 00:51:52;;;;;;;;;5.00;3.00;;;;;19.41;66.15;101413.88;5079436;27;45200;-75
2022/08/20 00:54:32;;;;;;;;;2.00;2.00;;;;;19.26;66.17;101403.38;5078592;28;45660;-75
2022/08/20 00:57:03;;;;;;;;;2.00;2.00;;;;;19.25;67.05;101406.28;5078811;28;45293;-75
2022/08/20 00:59:31;;;;;;;;;2.00;2.00;;;;;19.16;67.15;101405.72;5079236;28;45339;-75
2022/08/20 01:01:59;;;;;;;;;3.00;3.00;;;;;19.10;67.26;101402.03;5079111;28;46858;-75
2022/08/20 01:04:27;;;;;;;;;5.00;3.33;;;;;19.06;67.61;101403.44;5078820;28;46670;-75
2022/08/20 01:06:53;;;;;;;;;3.67;3.67;;;;;18.99;67.80;101399.97;5079510;28;45342;-75
2022/08/20 01:09:19;;;;;;;;;2.00;2.00;;;;;18.89;67.58;101398.56;5082450;28;45279;-75
2022/08/20 01:11:45;;;;;;;;;5.00;5.00;;;;;18.89;67.86;101411.22;5082288;28;45562;-75
2022/08/20 01:17:01;;;;;;;;;4.33;3.00;;;;;18.77;68.50;101397.59;5085014;27;45226;-74
2022/08/20 01:19:32;;;;;;;;;5.00;4.00;;;;;18.73;68.83;101399.88;5082522;28;45535;-75
2022/08/20 01:23:25;;;;;;;;;2.00;2.00;;;;;18.74;69.33;101406.91;5082308;28;45504;-75
2022/08/20 01:24:49;;;;;;;;;2.00;2.00;;;;;18.73;68.90;101410.66;5081733;28;46233;-75
2022/08/20 01:27:14;;;;;;;;;7.00;5.00;;;;;18.70;69.09;101408.38;5082030;28;45456;-75
2022/08/20 01:29:40;;;;;;;;;5.00;5.00;;;;;18.70;69.14;101405.69;5082348;28;45311;-75
2022/08/20 01:32:06;;;;;;;;;4.00;4.00;;;;;18.61;70.05;101399.72;5082337;28;45259;-75
2022/08/20 01:34:32;;;;;;;;;4.67;4.67;;;;;18.65;69.55;101410.91;5082011;28;45417;-75
2022/08/20 01:36:58;;;;;;;;;4.00;4.00;;;;;18.61;69.36;101412.34;5082047;28;45200;-75
2022/08/20 01:39:34;;;;;;;;;3.00;3.00;;;;;18.51;69.44;101392.09;5082205;28;45523;-74
2022/08/20 01:42:13;;;;;;;;;3.00;3.00;;;;;18.54;69.36;101407.81;5081651;28;45244;-74
2022/08/20 01:44:41;;;;;;;;;4.00;4.00;;;;;18.50;69.33;101416.53;5082054;28;46109;-75
2022/08/20 01:47:11;;;;;;;;;3.33;3.00;;;;;18.47;69.99;101414.25;5081655;28;45354;-75
2022/08/20 01:49:42;;;;;;;;;3.00;2.33;;;;;18.45;70.00;101419.84;5082088;28;45300;-74
2022/08/20 01:52:12;;;;;;;;;4.33;4.00;;;;;18.39;69.83;101410.75;5081715;27;45285;-75
2022/08/20 01:54:38;;;;;;;;;4.67;3.33;;;;;18.31;70.53;101402.88;5081653;28;45455;-74
2022/08/20 01:57:13;;;;;;;;;5.67;5.67;;;;;18.33;70.16;101422.34;5081497;28;45421;-75
2022/08/20 01:59:39;;;;;;;;;2.67;2.67;;;;;18.30;70.20;101425.47;5082069;28;45416;-75
2022/08/20 02:02:05;;;;;;;;;4.00;3.33;;;;;18.26;69.96;101425.03;5081668;28;45484;-75
2022/08/20 02:04:32;;;;;;;;;7.00;4.67;;;;;18.22;70.41;101428.34;5081406;28;45518;-75
2022/08/20 02:07:00;;;;;;;;;3.00;3.00;;;;;18.24;70.29;101431.66;5081780;28;45291;-75
2022/08/20 02:09:31;;;;;;;;;5.00;3.33;;;;;18.15;70.86;101431.91;5081452;28;45539;-75
2022/08/20 02:11:58;;;;;;;;;4.33;3.33;;;;;18.15;70.91;101442.66;5081250;28;45316;-74
2022/08/20 02:14:23;;;;;;;;;4.67;4.33;;;;;18.08;71.08;101427.53;5081081;28;45324;-75
2022/08/20 02:16:49;;;;;;;;;4.33;3.00;;;;;18.07;71.41;101436.63;5084189;27;45260;-75
2022/08/20 02:19:40;;;;;;;;;4.00;4.00;;;;;18.06;71.31;101435.81;5080646;28;45410;-75
2022/08/20 02:22:38;;;;;;;;;2.33;2.33;;;;;18.02;72.01;101432.69;5074296;28;45467;-75
2022/08/20 02:25:06;;;;;;;;;3.67;3.00;;;;;18.01;71.39;101440.97;5081123;28;46586;-75
2022/08/20 02:27:32;;;;;;;;;4.33;4.33;;;;;17.92;71.76;101427.72;5081117;28;45284;-75
2022/08/20 02:29:57;;;;;;;;;3.67;3.33;;;;;17.94;72.04;101430.22;5081399;28;45305;-74
2022/08/20 02:32:23;;;;;;;;;5.00;5.00;;;;;17.93;71.50;101431.25;5081415;28;45632;-75
2022/08/20 02:34:48;;;;;;;;;3.00;3.00;;;;;17.91;71.63;101434.16;5080936;28;46637;-75
2022/08/20 02:37:15;;;;;;;;;6.00;6.00;;;;;17.85;71.91;101428.75;5081237;28;45414;-75
2022/08/20 02:39:40;;;;;;;;;5.00;4.33;;;;;17.89;71.67;101430.00;5081279;28;45283;-75
2022/08/20 02:42:06;;;;;;;;;3.67;3.00;;;;;17.82;72.09;101430.00;5080729;28;45447;-75
2022/08/20 02:44:31;;;;;;;;;4.00;4.00;;;;;17.83;72.38;101442.41;5081021;28;46378;-75
2022/08/20 02:46:57;;;;;;;;;5.67;5.00;;;;;17.80;72.35;101437.44;5080874;28;45314;-75
2022/08/20 02:49:23;;;;;;;;;4.33;4.00;;;;;17.83;72.54;101441.56;5081258;28;45405;-75
2022/08/20 02:51:48;;;;;;;;;5.33;5.00;;;;;17.77;72.38;101437.84;5081058;28;45510;-75
2022/08/20 02:54:14;;;;;;;;;5.33;3.67;;;;;17.75;73.00;101432.69;5080365;28;45539;-75
2022/08/20 02:56:40;;;;;;;;;5.00;4.33;;;;;17.69;73.10;101433.50;5080715;28;45303;-75
2022/08/20 02:59:05;;;;;;;;;4.00;3.33;;;;;17.66;73.11;101436.63;5080866;28;45385;-75
2022/08/20 03:01:30;;;;;;;;;4.00;4.00;;;;;17.65;73.88;101432.25;5080900;28;45527;-75
2022/08/20 03:03:58;;;;;;;;;6.00;5.33;;;;;17.70;74.18;101437.03;5080566;28;45301;-75
2022/08/20 03:06:25;;;;;;;;;6.67;5.67;;;;;17.74;74.10;101457.91;5080510;28;45307;-75
2022/08/20 03:08:51;;;;;;;;;3.33;3.33;;;;;17.74;74.02;101449.00;5080708;28;45333;-75
2022/08/20 03:11:17;;;;;;;;;6.00;6.00;;;;;17.72;74.58;101451.91;5080446;28;45292;-75
2022/08/20 03:13:43;;;;;;;;;6.33;5.33;;;;;17.74;74.20;101455.22;5080031;28;46424;-75
2022/08/20 03:16:09;;;;;;;;;7.00;5.33;;;;;17.78;74.56;101459.16;5082933;27;45294;-75
2022/08/20 03:18:40;;;;;;;;;3.67;3.67;;;;;17.79;74.42;101446.53;5080918;28;45411;-75
2022/08/20 03:21:07;;;;;;;;;5.33;4.00;;;;;17.78;74.50;101451.09;5080254;28;45455;-75
2022/08/20 03:23:34;;;;;;;;;7.00;4.00;;;;;17.75;74.67;101442.63;5080387;28;46631;-75
2022/08/20 03:25:59;;;;;;;;;5.67;5.00;;;;;17.76;74.86;101442.41;5080293;28;45292;-75
2022/08/20 03:28:26;;;;;;;;;4.00;4.00;;;;;17.79;74.77;101442.00;5080107;28;45464;-74
2022/08/20 03:30:52;;;;;;;;;5.00;4.67;;;;;17.74;74.76;101439.09;5080084;28;45342;-74
2022/08/20 03:33:19;;;;;;;;;4.00;3.33;;;;;17.78;74.87;101447.59;5079929;28;46287;-74
2022/08/20 03:35:45;;;;;;;;;5.33;4.00;;;;;17.76;74.86;101438.91;5080180;28;45291;-74
2022/08/20 03:38:13;;;;;;;;;4.00;4.00;;;;;17.78;74.91;101453.78;5079966;28;45259;-75
2022/08/20 03:40:39;;;;;;;;;6.00;5.67;;;;;17.77;75.41;101448.59;5079892;28;45407;-74
2022/08/20 03:43:10;;;;;;;;;6.00;4.00;;;;;17.82;75.42;101458.75;5079761;28;45441;-75
2022/08/20 03:45:38;;;;;;;;;6.00;5.00;;;;;17.77;75.52;101452.13;5080312;28;45195;-75
2022/08/20 03:48:06;;;;;;;;;6.00;4.00;;;;;17.78;75.71;101453.78;5080163;27;45290;-75
2022/08/20 03:50:33;;;;;;;;;8.67;4.67;;;;;17.74;75.17;101454.38;5079556;28;45457;-75
2022/08/20 03:52:59;;;;;;;;;4.33;4.33;;;;;17.80;75.78;101472.38;5079753;28;46842;-74
2022/08/20 03:55:27;;;;;;;;;6.00;6.00;;;;;17.72;75.72;101453.78;5079677;28;45288;-75
2022/08/20 03:57:59;;;;;;;;;4.33;3.33;;;;;17.72;75.98;101443.84;5079717;28;45287;-75
2022/08/20 04:00:31;;;;;;;;;6.67;6.67;;;;;17.75;75.86;101458.75;5079913;28;45337;-74
2022/08/20 04:02:56;;;;;;;;;7.00;4.00;;;;;17.74;75.73;101457.06;5079637;28;45377;-75
2022/08/20 04:05:23;;;;;;;;;6.00;5.00;;;;;17.72;75.79;101457.28;5079879;28;45280;-75
2022/08/20 04:07:49;;;;;;;;;6.00;6.00;;;;;17.72;75.31;101449.22;5079570;28;45512;-74
2022/08/20 04:10:15;;;;;;;;;4.67;4.33;;;;;17.73;75.14;101458.94;5079907;28;45303;-74
2022/08/20 04:12:40;;;;;;;;;6.00;6.00;;;;;17.70;75.19;101451.28;5079092;28;46499;-75
2022/08/20 04:15:11;;;;;;;;;7.00;5.00;;;;;17.73;75.32;101468.88;5079783;28;45249;-75
2022/08/20 04:17:38;;;;;;;;;5.00;3.67;;;;;17.63;75.18;101453.16;5082662;27;45326;-75
2022/08/20 04:20:05;;;;;;;;;5.67;4.00;;;;;17.65;74.52;101470.72;5079748;28;45302;-75
2022/08/20 04:22:31;;;;;;;;;5.00;5.00;;;;;17.57;74.83;101468.22;5079452;28;47760;-75
2022/08/20 04:24:56;;;;;;;;;4.67;4.67;;;;;17.55;74.74;101464.91;5079608;28;45441;-75
2022/08/20 04:27:21;;;;;;;;;4.00;3.67;;;;;17.60;74.76;101473.19;5079762;28;45772;-75
2022/08/20 04:29:47;;;;;;;;;7.67;4.67;;;;;17.53;74.68;101465.13;5079644;28;45371;-75
2022/08/20 04:32:12;;;;;;;;;6.00;4.67;;;;;17.48;74.71;101459.50;5079433;28;45730;-75
2022/08/20 04:34:39;;;;;;;;;5.33;5.00;;;;;17.50;75.04;101470.06;5079446;28;45232;-75
2022/08/20 04:37:05;;;;;;;;;2.00;2.00;;;;;17.52;75.46;101473.38;5079703;28;45300;-75
2022/08/20 04:39:31;;;;;;;;;6.00;5.33;;;;;17.48;75.00;101470.25;5079172;28;45717;-75
2022/08/20 04:41:56;;;;;;;;;3.33;3.33;;;;;17.43;75.31;101467.38;5080808;28;45305;-75
2022/08/20 04:44:22;;;;;;;;;5.33;5.00;;;;;17.41;75.60;101472.94;5085983;28;45349;-75
2022/08/20 04:46:47;;;;;;;;;6.33;5.00;;;;;17.33;75.90;101465.03;5086041;28;45553;-75
2022/08/20 04:49:13;;;;;;;;;5.33;3.33;;;;;17.34;75.95;101468.56;5086019;28;45434;-75
2022/08/20 04:51:38;;;;;;;;;6.00;5.00;;;;;17.31;75.78;101460.91;5086076;27;46377;-75
2022/08/20 04:54:04;;;;;;;;;7.00;5.00;;;;;17.31;76.32;101480.56;5085899;28;45897;-75
2022/08/20 04:56:36;;;;;;;;;5.33;3.67;;;;;17.28;75.91;101475.59;5085821;28;45564;-75
2022/08/20 04:59:01;;;;;;;;;5.67;5.33;;;;;17.31;76.05;101477.03;5085683;28;45304;-75
2022/08/20 05:01:27;;;;;;;;;7.67;7.00;;;;;17.31;75.96;101480.56;5082379;28;45346;-75
2022/08/20 05:03:55;;;;;;;;;6.33;5.00;;;;;17.33;76.61;101483.84;5080372;28;45345;-75
2022/08/20 05:06:27;;;;;;;;;5.67;5.00;;;;;17.36;75.95;101496.88;5085107;28;45458;-75
2022/08/20 05:08:55;;;;;;;;;7.00;6.00;;;;;17.34;75.98;101495.44;5069053;28;45450;-74
2022/08/20 05:11:21;;;;;;;;;6.00;5.00;;;;;17.35;76.07;101489.03;5068150;28;46813;-75
2022/08/20 05:13:47;;;;;;;;;6.00;4.33;;;;;17.29;76.26;101493.34;5083275;28;45264;-75
2022/08/20 05:16:13;;;;;;;;;5.00;5.00;;;;;17.32;76.35;101500.16;5089190;27;45301;-74
2022/08/20 05:18:39;;;;;;;;;6.00;5.00;;;;;17.20;76.36;101481.13;5086933;27;45294;-75
2022/08/20 05:21:05;;;;;;;;;4.67;4.67;;;;;17.32;76.33;101494.78;5067923;28;45664;-75
2022/08/20 05:23:33;;;;;;;;;7.33;6.33;;;;;17.32;76.01;101492.09;5071898;28;45473;-74
2022/08/20 05:25:58;;;;;;;;;8.67;6.00;;;;;17.33;76.57;101496.47;5085792;28;45393;-74
2022/08/20 05:28:29;;;;;;;;;4.67;4.67;;;;;17.36;76.48;101510.31;5085123;28;45338;-75
2022/08/20 05:30:54;;;;;;;;;12.00;11.33;;;;;17.33;75.88;101491.91;5085406;28;45629;-78
2022/08/20 05:33:21;;;;;;;;;6.00;5.00;;;;;17.40;76.50;101510.75;5085429;28;45454;-78
2022/08/20 05:35:49;;;;;;;;;5.67;5.00;;;;;17.37;76.40;101497.72;5085435;28;45407;-78
2022/08/20 05:38:17;;;;;;;;;5.00;5.00;;;;;17.39;76.50;101509.09;5084981;28;45342;-77
2022/08/20 05:40:43;;;;;;;;;5.33;5.33;;;;;17.37;76.62;101514.69;5085251;27;45690;-77
2022/08/20 05:43:09;;;;;;;;;6.00;4.67;;;;;17.32;76.42;101494.78;5084928;28;45238;-77
2022/08/20 05:45:37;;;;;;;;;7.00;7.00;;;;;17.41;76.50;101515.94;5085533;28;45311;-76
2022/08/20 05:48:07;;;;;;;;;4.33;4.00;;;;;17.36;76.68;101510.31;5079504;28;45384;-77
2022/08/20 05:50:34;;;;;;;;;7.00;6.00;;;;;17.40;76.81;101514.28;5073720;28;47210;-78
2022/08/20 05:53:00;;;;;;;;;5.00;4.67;;;;;17.42;76.88;101509.50;5068360;28;45516;-77
2022/08/20 05:55:27;;;;;;;;;7.67;6.00;;;;;17.46;76.42;101515.34;5065565;28;45495;-77
2022/08/20 05:57:57;;;;;;;;;4.00;4.00;;;;;17.42;76.70;101495.28;5066336;28;45501;-76
2022/08/20 06:00:22;;;;;;;;;6.00;5.67;;;;;17.54;77.17;101517.00;5063311;28;45390;-77
2022/08/20 06:05:31;;;;;;;;;5.67;5.67;;;;;17.51;77.21;101515.53;5067811;28;45226;-77
2022/08/20 06:07:56;;;;;;;;;6.00;6.00;;;;;17.53;77.96;101518.88;5081612;28;45552;-77
2022/08/20 06:10:22;;;;;;;;;6.33;5.00;;;;;17.56;77.65;101517.63;5080517;28;46153;-77
2022/08/20 06:12:47;;;;;;;;;5.67;5.67;;;;;17.63;77.98;101528.41;5067740;28;45251;-76
2022/08/20 06:15:12;;;;;;;;;7.00;7.00;;;;;17.66;78.09;101519.94;5060919;28;45283;-76
2022/08/20 06:17:38;;;;;;;;;4.67;4.00;;;;;17.76;77.72;101530.28;5063186;27;45364;-76
2022/08/20 06:20:06;;;;;;;;;7.00;7.00;;;;;17.78;78.25;101531.75;5060714;28;45304;-76
2022/08/20 06:22:32;;;;;;;;;7.00;7.00;;;;;17.79;78.33;101522.66;5079355;28;45401;-76
2022/08/20 06:24:58;;;;;;;;;9.00;7.33;;;;;17.85;77.92;101530.94;5067905;28;45370;-76
2022/08/20 06:27:25;;;;;;;;;7.67;6.33;;;;;17.85;77.60;101521.00;5060396;28;45370;-76
2022/08/20 06:29:51;;;;;;;;;7.00;7.00;;;;;17.89;78.05;101527.63;5079844;28;45545;-76
2022/08/20 06:32:18;;;;;;;;;6.67;5.33;;;;;18.00;78.16;101528.91;5081041;28;45538;-76
2022/08/20 06:34:44;;;;;;;;;6.33;6.33;;;;;18.00;78.05;101523.53;5081209;28;45290;-76
2022/08/20 06:37:15;;;;;;;;;7.33;6.67;;;;;18.14;77.55;101532.44;5081021;28;45339;-76
2022/08/20 06:39:41;;;;;;;;;8.00;8.00;;;;;18.17;78.00;101520.47;5080993;28;48306;-76
2022/08/20 06:42:06;;;;;;;;;11.33;9.33;;;;;18.24;77.83;101523.16;5081147;28;45411;-77
2022/08/20 06:44:31;;;;;;;;;12.00;7.67;;;;;18.28;77.68;101519.00;5083061;28;45347;-76
2022/08/20 06:47:02;;;;;;;;;8.67;7.00;;;;;18.39;77.77;101525.63;5081167;28;45215;-76
2022/08/20 06:49:28;;;;;;;;;6.67;6.00;;;;;18.44;77.46;101520.47;5080872;28;46636;-76
2022/08/20 06:51:54;;;;;;;;;6.33;6.33;;;;;18.51;77.54;101513.22;5080929;27;45374;-76
2022/08/20 06:54:19;;;;;;;;;10.00;8.00;;;;;18.58;77.29;101518.56;5080566;28;45809;-76
2022/08/20 06:56:44;;;;;;;;;11.00;8.33;;;;;18.68;77.44;101524.34;5080528;28;45426;-76
2022/08/20 06:59:10;;;;;;;;;9.00;7.00;;;;;18.78;76.92;101515.03;5080764;28;46310;-76
2022/08/20 07:01:35;;;;;;;;;9.00;8.67;;;;;18.91;76.63;101525.75;5080147;28;45322;-76
2022/08/20 07:04:00;;;;;;;;;7.00;7.00;;;;;18.95;76.44;101519.94;5069236;27;45384;-76
2022/08/20 07:06:26;;;;;;;;;7.67;6.67;;;;;19.03;76.19;101508.94;5059962;28;45501;-76
2022/08/20 07:08:53;;;;;;;;;8.00;7.33;;;;;19.13;76.24;101525.50;5059842;28;46470;-76
2022/08/20 07:11:19;;;;;;;;;5.67;5.67;;;;;19.21;76.15;101521.75;5061412;28;45530;-76
2022/08/20 07:13:45;;;;;;;;;9.00;8.33;;;;;19.19;76.05;101510.38;5080549;28;45240;-76
2022/08/20 07:16:10;;;;;;;;;8.67;8.33;;;;;19.33;76.14;101527.28;5085319;27;45570;-76
2022/08/20 07:18:35;;;;;;;;;7.33;6.00;;;;;19.39;76.00;101526.44;5081524;27;45527;-76
2022/08/20 07:21:01;;;;;;;;;10.00;8.00;;;;;19.42;75.98;101519.78;5077629;28;45351;-76
2022/08/20 07:23:27;;;;;;;;;10.33;9.67;;;;;19.57;76.03;101527.59;5080267;28;45344;-76
2022/08/20 07:25:54;;;;;;;;;5.33;5.33;;;;;19.63;76.08;101529.44;5080396;28;45438;-76
2022/08/20 07:28:23;;;;;;;;;10.67;8.67;;;;;19.62;75.65;101514.31;5080084;28;45339;-76
2022/08/20 07:33:33;;;;;;;;;6.00;4.00;;;;;19.70;75.37;101515.09;5080522;28;45386;-76
2022/08/20 07:36:02;;;;;;;;;7.33;6.33;;;;;19.72;74.94;101510.31;5080051;28;45799;-76
2022/08/20 07:38:29;;;;;;;;;6.00;6.00;;;;;19.83;75.11;101524.97;5080354;28;45413;-75
2022/08/20 07:40:58;;;;;;;;;7.00;4.67;;;;;19.90;75.26;101533.81;5080085;28;45690;-75
2022/08/20 07:43:24;;;;;;;;;9.67;6.67;;;;;19.97;75.33;101531.09;5080191;28;45228;-75
2022/08/20 07:45:54;;;;;;;;;7.67;6.00;;;;;20.02;74.99;101534.81;5079934;28;45433;-74
2022/08/20 07:48:21;;;;;;;;;8.67;8.67;;;;;20.14;75.03;101547.63;5080097;28;46068;-75
2022/08/20 07:50:48;;;;;;;;;5.33;4.33;;;;;20.17;74.78;101533.66;5079937;28;45997;-75
2022/08/20 07:53:14;;;;;;;;;5.00;4.67;;;;;20.26;74.43;101535.06;5079897;28;45330;-75
2022/08/20 07:55:40;;;;;;;;;5.67;5.00;;;;;20.32;74.49;101536.03;5079599;27;45325;-75
2022/08/20 07:58:09;;;;;;;;;8.67;7.33;;;;;20.41;74.42;101537.41;5079802;28;46121;-75
2022/08/20 08:00:34;;;;;;;;;9.00;7.00;;;;;20.52;73.89;101540.44;5080035;28;45377;-76
2022/08/20 08:03:00;;;;;;;;;7.33;7.00;;;;;20.62;73.74;101540.75;5080006;28;45438;-75
2022/08/20 08:05:25;;;;;;;;;11.33;9.00;;;;;20.67;73.53;101540.94;5068468;28;45444;-75
2022/08/20 08:07:51;;;;;;;;;7.00;6.00;;;;;20.72;72.85;101532.16;5079600;28;45298;-75
2022/08/20 08:10:20;;;;;;;;;6.00;6.00;;;;;20.85;72.70;101551.97;5079534;28;45334;-75
2022/08/20 08:12:57;;;;;;;;;7.67;7.67;;;;;20.92;72.36;101544.66;5079495;28;45361;-75
2022/08/20 08:15:27;;;;;;;;;4.33;4.33;;;;;21.01;72.12;101545.19;5065046;28;45448;-76
2022/08/20 08:17:55;;;;;;;;;5.33;5.00;;;;;21.09;71.85;101554.84;5088740;27;45388;-75
2022/08/20 08:20:20;;;;;;;;;8.67;6.00;;;;;21.23;71.72;101552.84;5079347;28;45442;-75
2022/08/20 08:22:46;;;;;;;;;9.00;6.67;;;;;21.36;71.35;101535.63;5079870;28;45397;-75
2022/08/20 08:25:14;;;;;;;;;7.33;7.33;;;;;21.41;71.00;101533.06;5079742;28;45558;-75
2022/08/20 08:27:40;;;;;;;;;6.67;5.00;;;;;21.53;70.32;101541.22;5079290;28;46474;-76
2022/08/20 08:30:07;;;;;;;;;6.33;3.33;;;;;21.48;68.96;101532.97;5079629;28;45142;-75
2022/08/20 08:33:26;;;;;;;;;6.00;4.67;;;;;21.50;69.95;101531.69;5078860;28;45264;-76
2022/08/20 08:35:22;;;;;;;;;6.33;6.00;;;;;21.54;69.69;101535.59;5066411;28;45303;-75
2022/08/20 08:37:48;;;;;;;;;9.67;6.33;;;;;21.57;68.49;101540.53;5079199;28;45383;-76
2022/08/20 08:40:13;;;;;;;;;6.00;6.00;;;;;21.63;69.12;101538.78;5079313;28;45358;-75
2022/08/20 08:42:54;;;;;;;;;8.00;6.67;;;;;21.69;67.76;101539.75;5079292;28;45425;-75
2022/08/20 08:45:20;;;;;;;;;7.67;7.33;;;;;21.73;67.91;101540.13;5079169;28;45257;-76
2022/08/20 08:47:46;;;;;;;;;5.67;5.67;;;;;21.74;68.09;101537.19;5079224;28;45529;-75
2022/08/20 08:50:21;;;;;;;;;7.67;7.00;;;;;21.92;68.15;101554.44;5079135;28;45766;-76
2022/08/20 08:52:50;;;;;;;;;5.67;5.00;;;;;21.98;67.32;101544.56;5079207;27;45378;-75
2022/08/20 08:55:19;;;;;;;;;11.00;10.00;;;;;22.03;67.63;101545.53;5078902;28;45520;-75
2022/08/20 08:57:47;;;;;;;;;8.33;7.67;;;;;22.14;67.45;101541.19;5079016;28;46484;-76
2022/08/20 09:00:16;;;;;;;;;9.00;5.67;;;;;22.28;66.87;101551.81;5079383;28;45415;-76
2022/08/20 09:03:15;;;;;;;;;6.67;6.00;;;;;22.33;65.70;101547.34;5078395;28;45302;-77
2022/08/20 09:05:47;;;;;;;;;10.00;7.33;;;;;22.34;65.96;101553.59;5078955;27;45543;-76
2022/08/20 09:08:18;;;;;;;;;5.67;5.67;;;;;22.39;66.19;101544.75;5078972;28;46316;-76
2022/08/20 09:10:44;;;;;;;;;5.00;5.00;;;;;22.37;65.47;101550.41;5079017;28;45642;-76
2022/08/20 09:13:12;;;;;;;;;7.67;6.33;;;;;22.43;65.17;101546.78;5078579;28;45342;-75
2022/08/20 09:15:38;;;;;;;;;8.00;5.33;;;;;22.49;64.56;101561.25;5079361;27;45485;-75
2022/08/20 09:18:03;;;;;;;;;7.00;6.00;;;;;22.47;64.35;101549.81;5081339;27;45472;-76
2022/08/20 09:20:29;;;;;;;;;7.00;5.67;;;;;22.54;64.16;101553.22;5079056;28;45322;-76
2022/08/20 09:22:55;;;;;;;;;6.00;6.00;;;;;22.63;63.92;101555.63;5078983;28;45269;-76
2022/08/20 09:25:21;;;;;;;;;6.33;5.67;;;;;22.69;63.52;101555.50;5079335;28;45384;-76
2022/08/20 09:27:46;;;;;;;;;6.33;5.00;;;;;22.77;62.80;101545.34;5076960;28;45473;-77
2022/08/20 09:30:13;;;;;;;;;5.67;5.67;;;;;22.84;61.93;101546.06;5082533;27;45340;-76
2022/08/20 09:32:38;;;;;;;;;6.33;4.33;;;;;22.82;61.95;101543.59;5082582;28;45608;-75
2022/08/20 09:35:04;;;;;;;;;5.67;5.67;;;;;22.80;61.15;101547.59;5082006;28;45408;-76
2022/08/20 09:37:32;;;;;;;;;4.67;4.67;;;;;22.80;61.03;101550.31;5082208;28;46582;-76
2022/08/20 09:39:58;;;;;;;;;5.33;5.33;;;;;22.77;60.00;101550.78;5082104;28;45429;-76
2022/08/20 09:42:27;;;;;;;;;5.67;3.00;;;;;22.78;60.96;101547.81;5082113;28;45357;-76
2022/08/20 09:44:52;;;;;;;;;8.33;7.67;;;;;22.77;60.07;101539.94;5082002;28;45547;-76
2022/08/20 09:47:18;;;;;;;;;5.00;4.00;;;;;22.85;60.43;101541.47;5082252;28;46383;-76
2022/08/20 09:49:45;;;;;;;;;4.33;4.33;;;;;22.97;60.55;101533.31;5077104;27;45500;-76
2022/08/20 09:52:20;;;;;;;;;4.33;4.00;;;;;23.11;60.11;101529.28;5070587;27;45466;-76
2022/08/20 09:54:46;;;;;;;;;4.00;4.00;;;;;23.29;59.32;101530.19;5063127;28;45328;-77
2022/08/20 09:57:12;;;;;;;;;10.00;7.00;;;;;23.43;58.79;101525.31;5081711;28;45724;-76
2022/08/20 09:59:38;;;;;;;;;4.33;4.33;;;;;23.50;58.29;101514.31;5081922;28;45705;-76
2022/08/20 10:02:03;;;;;;;;;6.67;5.33;;;;;23.65;57.80;101519.19;5081950;28;45244;-77
2022/08/20 10:04:28;;;;;;;;;5.33;5.33;;;;;23.73;56.74;101521.50;5081852;28;45444;-76
2022/08/20 10:06:55;;;;;;;;;5.67;4.33;;;;;23.83;56.20;101529.00;5082035;28;45428;-77
2022/08/20 10:09:20;;;;;;;;;4.67;3.33;;;;;23.87;55.98;101519.31;5082608;28;45388;-76
2022/08/20 10:11:45;;;;;;;;;5.00;5.00;;;;;23.97;56.17;101526.78;5092680;27;45489;-76
2022/08/20 10:14:11;;;;;;;;;5.00;5.00;;;;;24.07;55.09;101515.28;5081415;28;45541;-77
2022/08/20 10:16:36;;;;;;;;;5.33;5.00;;;;;24.18;55.13;101513.59;5090255;27;46384;-76
2022/08/20 10:19:03;;;;;;;;;4.67;3.33;;;;;24.38;55.03;101512.25;5082552;27;45415;-77
2022/08/20 10:21:31;;;;;;;;;5.67;5.00;;;;;24.44;54.33;101494.94;5081621;28;45377;-76
2022/08/20 10:23:56;;;;;;;;;5.00;5.00;;;;;24.63;54.42;101508.25;5081069;28;45299;-77
2022/08/20 10:26:22;;;;;;;;;8.00;8.00;;;;;24.71;53.87;101499.66;5081168;28;45403;-77
2022/08/20 10:28:47;;;;;;;;;6.67;6.33;;;;;24.86;53.23;101506.34;5081430;28;45334;-77
2022/08/20 10:31:12;;;;;;;;;7.00;4.67;;;;;24.98;52.63;101506.25;5081576;28;45527;-76
2022/08/20 10:33:39;;;;;;;;;5.00;4.33;;;;;25.07;51.18;101504.75;5090930;27;47093;-77
2022/08/20 10:36:14;;;;;;;;;7.67;6.33;;;;;25.17;51.93;101506.78;5083351;28;46593;-77
2022/08/20 10:38:40;;;;;;;;;7.33;5.33;;;;;25.33;52.13;101508.59;5081332;28;45348;-77
2022/08/20 10:41:06;;;;;;;;;5.67;5.67;;;;;25.60;51.49;101512.41;5080214;28;45382;-77
2022/08/20 10:43:31;;;;;;;;;6.00;6.00;;;;;25.75;50.44;101508.16;5081051;28;45417;-77
2022/08/20 10:45:56;;;;;;;;;5.67;4.00;;;;;25.87;50.76;101500.66;5081100;28;46464;-78
2022/08/20 10:48:22;;;;;;;;;4.67;4.00;;;;;26.09;50.41;101519.63;5081324;28;45464;-76
2022/08/20 10:50:49;;;;;;;;;3.67;3.67;;;;;26.13;48.88;101514.47;5082366;28;45498;-77
2022/08/20 10:53:14;;;;;;;;;7.00;7.00;;;;;26.25;49.34;101510.75;5081027;28;45737;-77
2022/08/20 10:55:39;;;;;;;;;7.67;5.67;;;;;26.51;47.60;101514.47;5080568;28;46385;-76
2022/08/20 10:58:06;;;;;;;;;5.00;5.00;;;;;26.66;47.54;101502.81;5074685;28;45356;-76
2022/08/20 11:00:32;;;;;;;;;7.33;6.00;;;;;26.90;47.20;101517.94;5074521;28;45251;-75
2022/08/20 11:02:58;;;;;;;;;5.33;4.67;;;;;26.98;46.51;101498.34;5080869;28;45240;-77
2022/08/20 11:05:23;;;;;;;;;6.67;5.00;;;;;27.15;47.18;101503.59;5080649;28;45829;-76
2022/08/20 11:07:48;;;;;;;;;4.00;4.00;;;;;27.32;46.53;101506.06;5080630;28;45369;-77
2022/08/20 11:10:14;;;;;;;;;5.33;3.33;;;;;27.43;45.19;101508.81;5080853;28;45670;-79
2022/08/20 11:12:39;;;;;;;;;6.00;5.00;;;;;27.46;45.10;101502.81;5080229;28;45772;-78
2022/08/20 11:15:05;;;;;;;;;5.67;5.67;;;;;27.52;44.02;101496.28;5081599;28;46623;-77
2022/08/20 11:17:33;;;;;;;;;6.67;6.67;;;;;27.65;44.55;101511.31;5071362;27;45414;-76
2022/08/20 11:20:00;;;;;;;;;5.33;4.67;;;;;27.80;44.94;101502.31;5081965;28;45278;-78
2022/08/20 11:22:26;;;;;;;;;4.67;4.00;;;;;27.90;44.35;101498.78;5085260;28;45358;-77
2022/08/20 11:24:52;;;;;;;;;6.00;4.33;;;;;27.98;44.49;101497.38;5085134;28;46203;-76
2022/08/20 11:27:24;;;;;;;;;6.33;6.33;;;;;28.11;42.63;101507.75;5082072;28;45477;-76
2022/08/20 11:29:51;;;;;;;;;5.00;5.00;;;;;28.13;43.51;101502.00;5086656;28;45466;-77
2022/08/20 11:32:16;;;;;;;;;8.00;5.00;;;;;28.31;43.36;101508.03;5070367;28;45489;-77